createdAt,value
2022-10-01T00:00:48.198Z,28.23
2022-10-01T00:05:34.407Z,24.42
2022-10-01T00:07:57.516Z,27.30
2022-10-01T00:10:24.002Z,29.55
2022-10-01T00:12:47.923Z,24.83
2022-10-01T00:15:13.522Z,24.25
2022-10-01T00:17:37.160Z,22.73
2022-10-01T00:20:00.266Z,25.55
2022-10-01T00:22:23.438Z,33.17
2022-10-01T00:24:47.292Z,20.80
2022-10-01T00:27:12.566Z,28.17
2022-10-01T00:29:37.695Z,33.72
2022-10-01T00:32:01.543Z,23.60
2022-10-01T00:34:25.238Z,22.40
2022-10-01T00:36:49.307Z,27.63
2022-10-01T00:39:12.987Z,25.40
2022-10-01T00:41:36.297Z,25.05
2022-10-01T00:44:02.049Z,23.65
2022-10-01T00:46:27.654Z,30.42
2022-10-01T00:48:57.467Z,20.05
2022-10-01T00:51:21.185Z,17.65
2022-10-01T00:53:44.364Z,27.13
2022-10-01T00:56:07.486Z,21.17
2022-10-01T00:58:31.088Z,25.50
2022-10-01T01:00:56.400Z,28.52
2022-10-01T01:03:19.634Z,21.20
2022-10-01T01:05:43.146Z,21.77
2022-10-01T01:08:06.335Z,22.07
2022-10-01T01:10:31.122Z,24.02
2022-10-01T01:13:01.722Z,21.23
2022-10-01T01:15:27.923Z,20.60
2022-10-01T01:17:55.898Z,18.63
2022-10-01T01:20:55.059Z,22.48
2022-10-01T01:23:42.638Z,20.08
2022-10-01T01:26:11.617Z,23.00
2022-10-01T01:28:37.594Z,19.77
2022-10-01T01:31:02.720Z,21.67
2022-10-01T01:33:25.926Z,21.08
2022-10-01T01:35:52.120Z,20.67
2022-10-01T01:38:16.521Z,22.85
2022-10-01T01:40:39.668Z,16.58
2022-10-01T01:43:05.683Z,20.95
2022-10-01T01:45:30.635Z,15.48
2022-10-01T01:47:56.119Z,14.20
2022-10-01T01:50:19.367Z,18.98
2022-10-01T01:52:42.471Z,10.93
2022-10-01T01:55:08.697Z,12.85
2022-10-01T01:57:33.512Z,16.60
2022-10-01T01:59:56.615Z,12.57
2022-10-01T02:02:24.058Z,11.55
2022-10-01T02:04:49.082Z,15.90
2022-10-01T02:07:47.831Z,14.82
2022-10-01T02:10:18.003Z,16.23
2022-10-01T02:12:50.055Z,35.70
2022-10-01T02:15:17.249Z,22.08
2022-10-01T02:17:50.578Z,22.85
2022-10-01T02:20:17.567Z,22.38
2022-10-01T02:22:42.763Z,37.17
2022-10-01T02:25:06.458Z,19.23
2022-10-01T02:27:31.044Z,40.33
2022-10-01T02:29:54.220Z,24.58
2022-10-01T02:32:17.481Z,23.88
2022-10-01T02:34:42.009Z,28.73
2022-10-01T02:39:28.843Z,27.55
2022-10-01T02:41:51.949Z,29.63
2022-10-01T02:44:15.992Z,33.38
2022-10-01T02:46:42.321Z,21.73
2022-10-01T02:49:05.431Z,28.20
2022-10-01T02:51:35.890Z,27.10
2022-10-01T02:54:02.250Z,30.48
2022-10-01T02:56:48.334Z,28.45
2022-10-01T02:59:12.007Z,35.45
2022-10-01T03:01:35.631Z,28.95
2022-10-01T03:03:58.973Z,37.78
2022-10-01T03:06:22.458Z,23.88
2022-10-01T03:08:46.925Z,21.10
2022-10-01T03:13:33.039Z,28.15
2022-10-01T03:15:56.156Z,29.65
2022-10-01T03:18:19.303Z,29.13
2022-10-01T03:20:42.405Z,24.27
2022-10-01T03:23:05.519Z,19.13
2022-10-01T03:25:30.042Z,17.70
2022-10-01T03:30:16.337Z,16.35
2022-10-01T03:32:39.428Z,16.33
2022-10-01T03:35:02.611Z,20.58
2022-10-01T03:37:25.784Z,19.23
2022-10-01T03:39:48.973Z,17.70
2022-10-01T03:42:13.451Z,23.92
2022-10-01T03:46:59.476Z,25.45
2022-10-01T03:49:22.606Z,21.02
2022-10-01T03:51:45.993Z,25.45
2022-10-01T03:54:09.474Z,23.10
2022-10-01T03:56:32.893Z,21.15
2022-10-01T03:58:57.446Z,19.40
2022-10-01T04:03:43.879Z,15.40
2022-10-01T04:06:07.315Z,19.90
2022-10-01T04:08:30.490Z,29.90
2022-10-01T04:10:53.586Z,15.20
2022-10-01T04:13:16.708Z,29.50
2022-10-01T04:15:41.311Z,14.77
2022-10-01T04:20:29.416Z,25.20
2022-10-01T04:22:53.146Z,29.63
2022-10-01T04:25:16.503Z,25.65
2022-10-01T04:27:39.674Z,16.90
2022-10-01T04:30:02.858Z,29.27
2022-10-01T04:32:27.695Z,21.92
2022-10-01T04:34:53.568Z,22.67
2022-10-01T04:37:16.667Z,30.98
2022-10-01T04:39:39.815Z,21.73
2022-10-01T04:42:02.998Z,22.75
2022-10-01T04:44:26.133Z,26.85
2022-10-01T04:46:49.384Z,18.83
2022-10-01T04:49:14.070Z,18.23
2022-10-01T04:51:37.390Z,22.63
2022-10-01T04:54:00.881Z,30.17
2022-10-01T04:56:24.029Z,22.17
2022-10-01T04:58:48.591Z,16.48
2022-10-01T05:03:34.726Z,15.80
2022-10-01T05:05:59.226Z,25.50
2022-10-01T05:10:45.754Z,31.05
2022-10-01T05:13:09.041Z,43.05
2022-10-01T05:15:32.982Z,32.20
2022-10-01T05:17:56.238Z,31.63
2022-10-01T05:20:21.117Z,31.17
2022-10-01T05:22:45.706Z,23.75
2022-10-01T05:27:36.414Z,34.30
2022-10-01T05:29:59.895Z,23.88
2022-10-01T05:32:23.006Z,23.75
2022-10-01T05:34:49.902Z,33.58
2022-10-01T05:37:15.930Z,27.63
2022-10-01T05:39:40.456Z,33.70
2022-10-01T05:44:29.850Z,24.95
2022-10-01T05:46:53.722Z,27.52
2022-10-01T05:49:17.666Z,21.70
2022-10-01T05:51:40.830Z,52.22
2022-10-01T05:54:04.745Z,30.98
2022-10-01T05:56:29.398Z,29.83
2022-10-01T05:58:52.654Z,34.63
2022-10-01T06:01:16.029Z,30.30
2022-10-01T06:03:39.263Z,27.33
2022-10-01T06:06:02.459Z,32.92
2022-10-01T06:08:26.737Z,20.27
2022-10-01T06:10:50.115Z,23.15
2022-10-01T06:13:17.967Z,34.35
2022-10-01T06:15:41.337Z,32.22
2022-10-01T06:18:04.747Z,27.40
2022-10-01T06:20:28.278Z,40.75
2022-10-01T06:22:54.941Z,25.90
2022-10-01T06:25:18.182Z,27.63
2022-10-01T06:27:41.324Z,33.13
2022-10-01T06:30:06.571Z,24.20
2022-10-01T06:32:34.150Z,38.75
2022-10-01T06:34:58.157Z,21.40
2022-10-01T06:37:21.342Z,24.63
2022-10-01T06:39:45.013Z,29.13
2022-10-01T06:42:08.345Z,18.75
2022-10-01T06:44:31.498Z,25.65
2022-10-01T06:46:56.089Z,22.73
2022-10-01T06:52:01.230Z,25.23
2022-10-01T06:54:27.348Z,23.92
2022-10-01T06:56:50.522Z,34.80
2022-10-01T06:59:13.700Z,25.58
2022-10-01T07:01:37.920Z,26.92
2022-10-01T07:04:03.648Z,26.77
2022-10-01T07:06:27.092Z,30.83
2022-10-01T07:08:50.374Z,37.95
2022-10-01T07:11:13.859Z,24.13
2022-10-01T07:13:37.115Z,28.23
2022-10-01T07:16:00.453Z,27.70
2022-10-01T07:18:23.721Z,26.48
2022-10-01T07:20:48.302Z,32.10
2022-10-01T07:23:13.201Z,21.80
2022-10-01T07:25:36.353Z,31.00
2022-10-01T07:28:00.483Z,32.17
2022-10-01T07:30:24.228Z,17.35
2022-10-01T07:32:47.405Z,18.08
2022-10-01T07:35:10.792Z,28.08
2022-10-01T07:37:35.370Z,14.75
2022-10-01T07:42:21.829Z,10.15
2022-10-01T07:44:44.991Z,16.48
2022-10-01T07:47:08.206Z,8.13
2022-10-01T07:49:31.344Z,20.67
2022-10-01T07:51:54.762Z,11.02
2022-10-01T07:54:20.217Z,6.40
2022-10-01T07:56:43.509Z,5.57
2022-10-01T07:59:07.980Z,6.82
2022-10-01T08:03:55.336Z,4.65
2022-10-01T08:06:22.007Z,9.80
2022-10-01T08:08:48.557Z,5.32
2022-10-01T08:11:14.655Z,11.75
2022-10-01T08:13:37.998Z,7.20
2022-10-01T08:16:03.020Z,8.25
2022-10-01T08:18:26.290Z,9.05
2022-10-01T08:20:49.484Z,9.38
2022-10-01T08:23:13.922Z,9.35
2022-10-01T08:28:01.715Z,6.47
2022-10-01T08:30:25.500Z,12.52
2022-10-01T08:32:48.753Z,7.18
2022-10-01T08:35:12.538Z,8.98
2022-10-01T08:37:35.698Z,12.10
2022-10-01T08:39:58.894Z,13.52
2022-10-01T08:42:40.926Z,6.80
2022-10-01T08:45:07.045Z,9.23
2022-10-01T08:47:31.970Z,7.65
2022-10-01T08:49:56.682Z,7.07
2022-10-01T08:52:22.438Z,9.85
2022-10-01T08:54:47.603Z,8.20
2022-10-01T08:57:14.022Z,10.00
2022-10-01T08:59:40.818Z,5.60
2022-10-01T09:02:12.265Z,8.52
2022-10-01T09:04:35.523Z,9.60
2022-10-01T09:07:01.922Z,9.85
2022-10-01T09:09:36.282Z,16.00
2022-10-01T09:12:06.787Z,5.63
2022-10-01T09:14:45.957Z,7.80
2022-10-01T09:17:15.658Z,7.68
2022-10-01T09:19:47.970Z,5.90
2022-10-01T09:22:13.217Z,10.52
2022-10-01T09:24:43.437Z,5.22
2022-10-01T09:27:08.812Z,10.00
2022-10-01T09:29:33.835Z,8.75
2022-10-01T09:31:57.159Z,8.70
2022-10-01T09:34:26.899Z,6.40
2022-10-01T09:36:57.754Z,11.25
2022-10-01T09:39:23.195Z,12.55
2022-10-01T09:41:46.903Z,8.20
2022-10-01T09:44:14.714Z,14.75
2022-10-01T09:46:40.005Z,6.57
2022-10-01T09:49:05.074Z,14.32
2022-10-01T09:51:34.062Z,13.50
2022-10-01T09:54:03.369Z,5.97
2022-10-01T09:56:29.499Z,9.68
2022-10-01T09:58:55.222Z,13.35
2022-10-01T10:01:25.544Z,12.98
2022-10-01T10:03:55.649Z,10.27
2022-10-01T10:06:18.842Z,7.88
2022-10-01T10:08:45.563Z,13.30
2022-10-01T10:11:10.537Z,8.95
2022-10-01T10:13:35.173Z,7.68
2022-10-01T10:15:58.619Z,10.77
2022-10-01T10:18:26.090Z,5.28
2022-10-01T10:20:52.496Z,6.43
2022-10-01T10:23:17.134Z,6.20
2022-10-01T10:28:05.202Z,5.60
2022-10-01T10:30:28.514Z,9.27
2022-10-01T10:32:51.778Z,10.30
2022-10-01T10:35:17.063Z,7.32
2022-10-01T10:37:46.352Z,5.78
2022-10-01T10:40:09.714Z,16.95
2022-10-01T10:42:34.492Z,5.90
2022-10-01T10:44:58.485Z,4.82
2022-10-01T10:47:22.071Z,7.00
2022-10-01T10:49:46.070Z,14.70
2022-10-01T10:52:19.774Z,7.07
2022-10-01T10:54:43.092Z,5.97
2022-10-01T10:57:26.094Z,5.47
2022-10-01T11:00:00.914Z,7.68
2022-10-01T11:02:25.404Z,5.10
2022-10-01T11:04:49.276Z,7.43
2022-10-01T11:07:13.512Z,7.05
2022-10-01T11:09:45.675Z,7.63
2022-10-01T11:12:14.326Z,8.80
2022-10-01T11:14:46.937Z,6.07
2022-10-01T11:17:21.389Z,8.48
2022-10-01T11:19:51.417Z,9.32
2022-10-01T11:22:25.048Z,6.63
2022-10-01T11:25:01.765Z,9.35
2022-10-01T11:27:28.675Z,8.07
2022-10-01T11:29:56.875Z,4.00
2022-10-01T11:32:24.187Z,5.13
2022-10-01T11:35:05.138Z,4.40
2022-10-01T11:37:34.757Z,4.28
2022-10-01T11:39:58.024Z,8.68
2022-10-01T11:42:22.854Z,7.97
2022-10-01T11:44:47.762Z,4.88
2022-10-01T11:47:12.697Z,6.40
2022-10-01T11:49:42.987Z,8.18
2022-10-01T11:52:10.361Z,11.50
2022-10-01T11:54:34.192Z,5.53
2022-10-01T11:57:15.050Z,9.30
2022-10-01T11:59:39.992Z,4.78
2022-10-01T12:02:08.239Z,13.20
2022-10-01T12:04:33.521Z,4.93
2022-10-01T12:07:01.528Z,5.10
2022-10-01T12:09:27.461Z,6.93
2022-10-01T12:11:52.789Z,13.68
2022-10-01T12:14:18.590Z,9.60
2022-10-01T12:16:45.357Z,7.85
2022-10-01T12:19:13.501Z,15.10
2022-10-01T12:21:38.853Z,8.95
2022-10-01T12:24:05.209Z,12.32
2022-10-01T12:26:35.634Z,7.13
2022-10-01T12:29:01.025Z,5.15
2022-10-01T12:31:27.431Z,5.20
2022-10-01T12:34:01.206Z,11.50
2022-10-01T12:36:27.498Z,7.55
2022-10-01T12:38:59.053Z,6.15
2022-10-01T12:41:31.011Z,4.47
2022-10-01T12:44:13.779Z,10.95
2022-10-01T12:46:40.271Z,5.10
2022-10-01T12:49:07.927Z,6.82
2022-10-01T12:51:39.999Z,12.88
2022-10-01T12:54:08.573Z,7.80
2022-10-01T12:56:37.363Z,9.05
2022-10-01T12:59:18.172Z,7.97
2022-10-01T13:01:48.600Z,6.72
2022-10-01T13:04:36.007Z,10.90
2022-10-01T13:07:07.966Z,6.95
2022-10-01T13:09:34.830Z,5.93
2022-10-01T13:12:11.382Z,19.92
2022-10-01T13:14:34.637Z,6.95
2022-10-01T13:17:00.441Z,9.32
2022-10-01T13:19:25.972Z,8.43
2022-10-01T13:21:57.459Z,10.07
2022-10-01T13:24:24.101Z,8.70
2022-10-01T13:26:49.277Z,18.05
2022-10-01T13:29:20.612Z,8.27
2022-10-01T13:31:55.234Z,13.02
2022-10-01T13:34:36.170Z,6.93
2022-10-01T13:37:15.749Z,6.93
2022-10-01T13:39:42.109Z,11.80
2022-10-01T13:42:05.746Z,11.15
2022-10-01T13:44:33.651Z,8.65
2022-10-01T13:47:06.121Z,15.13
2022-10-01T13:49:30.083Z,7.32
2022-10-01T13:51:53.287Z,5.38
2022-10-01T13:54:19.910Z,8.23
2022-10-01T13:56:43.155Z,8.18
2022-10-01T13:59:07.911Z,12.35
2022-10-01T14:01:39.365Z,5.55
2022-10-01T14:04:08.125Z,5.85
2022-10-01T14:06:33.561Z,7.28
2022-10-01T14:09:01.044Z,7.22
2022-10-01T14:11:42.759Z,10.05
2022-10-01T14:14:30.479Z,5.75
2022-10-01T14:16:55.108Z,8.70
2022-10-01T14:19:21.697Z,9.52
2022-10-01T14:21:52.314Z,6.82
2022-10-01T14:24:21.602Z,14.20
2022-10-01T14:26:48.000Z,7.22
2022-10-01T14:29:16.359Z,10.20
2022-10-01T14:31:50.100Z,9.70
2022-10-01T14:34:41.428Z,9.90
2022-10-01T14:37:07.177Z,10.45
2022-10-01T14:39:30.550Z,8.13
2022-10-01T14:41:54.451Z,13.18
2022-10-01T14:44:23.076Z,9.23
2022-10-01T14:46:46.293Z,13.15
2022-10-01T14:49:20.345Z,7.25
2022-10-01T14:51:51.546Z,12.13
2022-10-01T14:54:14.778Z,14.43
2022-10-01T14:56:38.036Z,10.45
2022-10-01T14:59:03.358Z,8.48
2022-10-01T15:01:26.636Z,7.65
2022-10-01T15:03:50.252Z,15.35
2022-10-01T15:06:14.675Z,9.03
2022-10-01T15:11:04.981Z,12.07
2022-10-01T15:13:29.610Z,9.85
2022-10-01T15:15:53.017Z,11.20
2022-10-01T15:18:16.844Z,13.10
2022-10-01T15:20:40.079Z,8.27
2022-10-01T15:23:05.865Z,8.85
2022-10-01T15:25:30.745Z,8.55
2022-10-01T15:27:56.513Z,7.18
2022-10-01T15:30:19.887Z,7.70
2022-10-01T15:32:43.068Z,8.75
2022-10-01T15:35:07.294Z,10.57
2022-10-01T15:37:32.467Z,10.35
2022-10-01T15:39:55.664Z,11.38
2022-10-01T15:42:26.632Z,14.20
2022-10-01T15:44:50.254Z,12.38
2022-10-01T15:47:37.509Z,10.98
2022-10-01T15:50:21.781Z,7.65
2022-10-01T15:52:53.241Z,12.48
2022-10-01T15:55:16.601Z,12.57
2022-10-01T15:57:41.141Z,11.45
2022-10-01T16:02:29.901Z,7.53
2022-10-01T16:04:56.167Z,5.80
2022-10-01T16:07:20.867Z,9.98
2022-10-01T16:09:52.343Z,7.75
2022-10-01T16:12:21.194Z,13.88
2022-10-01T16:14:47.469Z,10.77
2022-10-01T16:17:30.489Z,9.40
2022-10-01T16:19:55.446Z,14.05
2022-10-01T16:22:21.674Z,9.10
2022-10-01T16:24:45.569Z,13.98
2022-10-01T16:27:10.978Z,20.08
2022-10-01T16:29:34.123Z,12.98
2022-10-01T16:31:59.548Z,10.02
2022-10-01T16:34:22.724Z,11.80
2022-10-01T16:36:46.486Z,13.35
2022-10-01T16:39:12.558Z,7.63
2022-10-01T16:41:35.737Z,13.48
2022-10-01T16:43:59.242Z,12.02
2022-10-01T16:46:22.639Z,8.90
2022-10-01T16:48:47.542Z,9.13
2022-10-01T16:51:10.736Z,10.40
2022-10-01T16:53:33.913Z,16.17
2022-10-01T16:55:58.235Z,11.15
2022-10-01T16:58:21.826Z,9.45
2022-10-01T17:00:45.118Z,14.57
2022-10-01T17:03:09.855Z,15.02
2022-10-01T17:05:36.200Z,11.13
2022-10-01T17:08:00.937Z,11.38
2022-10-01T17:10:24.116Z,13.48
2022-10-01T17:12:48.174Z,8.98
2022-10-01T17:15:13.413Z,9.63
2022-10-01T17:17:36.614Z,10.80
2022-10-01T17:19:59.773Z,13.75
2022-10-01T17:22:25.468Z,12.15
2022-10-01T17:24:48.764Z,12.20
2022-10-01T17:27:11.954Z,11.15
2022-10-01T17:29:35.079Z,11.00
2022-10-01T17:31:58.369Z,11.63
2022-10-01T17:34:22.121Z,13.18
2022-10-01T17:36:45.848Z,9.97
2022-10-01T17:39:10.436Z,8.52
2022-10-01T17:43:56.486Z,12.32
2022-10-01T17:46:19.777Z,18.95
2022-10-01T17:48:42.965Z,14.95
2022-10-01T17:51:07.010Z,18.85
2022-10-01T17:53:35.964Z,20.48
2022-10-01T17:56:06.462Z,16.65
2022-10-01T17:58:29.630Z,27.55
2022-10-01T18:00:54.065Z,13.25
2022-10-01T18:03:18.403Z,22.95
2022-10-01T18:05:42.206Z,10.85
2022-10-01T18:08:05.354Z,15.90
2022-10-01T18:10:28.507Z,11.85
2022-10-01T18:12:53.115Z,13.90
2022-10-01T18:17:43.677Z,22.77
2022-10-01T18:20:13.930Z,20.48
2022-10-01T18:22:37.988Z,16.80
2022-10-01T18:25:01.222Z,16.85
2022-10-01T18:27:24.457Z,11.23
2022-10-01T18:29:48.990Z,19.60
2022-10-01T18:32:13.718Z,20.67
2022-10-01T18:34:38.197Z,12.77
2022-10-01T18:37:04.150Z,19.27
2022-10-01T18:39:29.851Z,24.52
2022-10-01T18:41:53.034Z,21.13
2022-10-01T18:44:20.253Z,14.57
2022-10-01T18:46:56.453Z,17.05
2022-10-01T18:49:27.537Z,21.85
2022-10-01T18:52:01.098Z,19.52
2022-10-01T18:54:42.757Z,17.92
2022-10-01T18:57:10.332Z,15.65
2022-10-01T18:59:50.603Z,17.35
2022-10-01T19:02:24.824Z,22.27
2022-10-01T19:05:00.522Z,24.75
2022-10-01T19:07:31.250Z,17.52
2022-10-01T19:09:57.064Z,15.00
2022-10-01T19:12:28.080Z,22.90
2022-10-01T19:14:57.122Z,26.75
2022-10-01T19:17:29.053Z,17.40
2022-10-01T19:19:59.092Z,19.35
2022-10-01T19:22:29.178Z,17.20
2022-10-01T19:25:01.626Z,16.45
2022-10-01T19:27:30.567Z,15.55
2022-10-01T19:30:04.841Z,11.43
2022-10-01T19:32:31.705Z,15.63
2022-10-01T19:34:59.045Z,16.48
2022-10-01T19:37:27.636Z,18.33
2022-10-01T19:39:51.576Z,19.65
2022-10-01T19:42:17.755Z,21.83
2022-10-01T19:44:43.415Z,8.93
2022-10-01T19:47:16.762Z,10.65
2022-10-01T19:49:41.384Z,12.68
2022-10-01T19:54:30.851Z,12.38
2022-10-01T19:56:54.622Z,12.85
2022-10-01T19:59:19.841Z,12.52
2022-10-01T20:01:46.233Z,17.83
2022-10-01T20:04:19.557Z,15.70
2022-10-01T20:06:44.913Z,13.75
2022-10-01T20:09:10.161Z,20.33
2022-10-01T20:11:36.787Z,11.25
2022-10-01T20:14:08.322Z,20.40
2022-10-01T20:16:35.070Z,21.25
2022-10-01T20:19:02.295Z,16.75
2022-10-01T20:21:31.947Z,15.13
2022-10-01T20:23:58.546Z,17.65
2022-10-01T20:26:26.785Z,20.08
2022-10-01T20:28:58.426Z,18.00
2022-10-01T20:31:23.184Z,17.52
2022-10-01T20:33:51.709Z,20.13
2022-10-01T20:36:15.845Z,17.48
2022-10-01T20:38:41.002Z,29.25
2022-10-01T20:41:07.124Z,15.07
2022-10-01T20:43:34.353Z,18.10
2022-10-01T20:45:57.664Z,17.73
2022-10-01T20:48:23.387Z,14.10
2022-10-01T20:50:47.860Z,12.65
2022-10-01T20:53:16.549Z,18.73
2022-10-01T20:55:41.130Z,17.70
2022-10-01T20:58:07.982Z,13.25
2022-10-01T21:00:31.461Z,14.88
2022-10-01T21:02:57.109Z,9.73
2022-10-01T21:05:22.198Z,20.15
2022-10-01T21:07:50.314Z,13.02
2022-10-01T21:10:17.181Z,10.57
2022-10-01T21:12:41.721Z,13.45
2022-10-01T21:15:07.767Z,9.63
2022-10-01T21:17:36.931Z,9.68
2022-10-01T21:20:11.729Z,14.90
2022-10-01T21:22:41.593Z,16.63
2022-10-01T21:25:10.682Z,9.23
2022-10-01T21:27:55.560Z,9.32
2022-10-01T21:30:20.733Z,12.88
2022-10-01T21:33:07.621Z,8.18
2022-10-01T21:35:34.021Z,7.57
2022-10-01T21:38:01.640Z,9.55
2022-10-01T21:40:27.614Z,9.95
2022-10-01T21:42:53.611Z,8.63
2022-10-01T21:45:22.690Z,9.93
2022-10-01T21:48:24.419Z,14.25
2022-10-01T21:50:53.021Z,12.65
2022-10-01T21:53:33.358Z,13.20
2022-10-01T21:56:18.143Z,10.70
2022-10-01T21:58:49.928Z,19.67
2022-10-01T22:01:17.504Z,18.80
2022-10-01T22:03:45.099Z,17.70
2022-10-01T22:06:11.877Z,21.55
2022-10-01T22:08:48.195Z,13.02
2022-10-01T22:11:12.600Z,13.15
2022-10-01T22:13:36.975Z,12.77
2022-10-01T22:16:01.961Z,12.85
2022-10-01T22:18:33.299Z,12.45
2022-10-01T22:20:56.675Z,13.13
2022-10-01T22:23:19.859Z,15.60
2022-10-01T22:25:44.709Z,14.88
2022-10-01T22:28:09.492Z,21.00
2022-10-01T22:30:34.635Z,12.80
2022-10-01T22:32:59.568Z,12.95
2022-10-01T22:35:27.320Z,9.43
2022-10-01T22:37:53.833Z,13.38
2022-10-01T22:40:19.138Z,14.27
2022-10-01T22:42:43.555Z,10.93
2022-10-01T22:47:54.485Z,11.95
2022-10-01T22:50:29.439Z,9.82
2022-10-01T22:52:59.245Z,10.02
2022-10-01T22:55:26.655Z,13.15
2022-10-01T22:57:57.314Z,10.52
2022-10-01T23:00:21.343Z,14.57
2022-10-01T23:02:46.685Z,13.23
2022-10-01T23:05:16.421Z,10.63
2022-10-01T23:07:46.643Z,13.63
2022-10-01T23:10:11.248Z,10.63
2022-10-01T23:15:05.297Z,14.20
2022-10-01T23:17:30.061Z,14.60
2022-10-01T23:19:59.141Z,15.18
2022-10-01T23:22:30.301Z,7.40
2022-10-01T23:25:05.352Z,9.10
2022-10-01T23:27:32.516Z,8.25
2022-10-01T23:30:20.010Z,3.60
2022-10-01T23:33:00.445Z,8.85
2022-10-01T23:35:25.350Z,7.38
2022-10-01T23:37:58.140Z,10.25
2022-10-01T23:40:23.514Z,8.38
2022-10-01T23:42:48.851Z,16.02
2022-10-01T23:45:16.446Z,13.77
2022-10-01T23:47:43.375Z,13.45
2022-10-01T23:50:07.552Z,10.88
2022-10-01T23:52:33.162Z,15.10
2022-10-01T23:55:18.533Z,18.35
2022-10-01T23:57:42.658Z,10.80
